Time;durP1;ratioP1;P1;durP2;ratioP2;P2;SDS_P1;SDS_P2;PMS_P1;PMS_P2;Temp;Humidity;BMP_temperature;BMP_pressure;BME280_temperature;BME280_humidity;BME280_pressure;Samples;Min_cycle;Max_cycle;Signal;HPM_P1;HPM_P2
2020/12/03 00:01:22;;;;;;;45.33;33.57;;;;;;;;;;5033786;28;20233;-71
2020/12/03 00:04:06;;;;;;;53.42;39.90;;;;;;;;;;5033170;28;20431;-71
2020/12/03 00:06:53;;;;;;;47.30;35.70;;;;;;;;;;5033384;28;20624;-71
2020/12/03 00:09:38;;;;;;;47.40;34.97;;;;;;;;;;5033313;28;20578;-71
2020/12/03 00:12:22;;;;;;;48.60;36.07;;;;;;;;;;5033411;28;20200;-71
2020/12/03 00:15:07;;;;;;;49.43;34.53;;;;;;;;;;5033587;28;20208;-71
2020/12/03 00:17:51;;;;;;;47.90;35.37;;;;;;;;;;5033079;28;20200;-71
2020/12/03 00:20:36;;;;;;;51.13;36.13;;;;;;;;;;5033516;28;20354;-70
2020/12/03 00:23:21;;;;;;;45.27;34.37;;;;;;;;;;5033439;28;20285;-71
2020/12/03 00:26:06;;;;;;;50.90;34.77;;;;;;;;;;5032888;28;20231;-72
2020/12/03 00:28:51;;;;;;;50.20;35.87;;;;;;;;;;5033164;28;20277;-71
2020/12/03 00:31:35;;;;;;;54.90;37.27;;;;;;;;;;5033363;28;20202;-71
2020/12/03 00:34:20;;;;;;;53.97;36.40;;;;;;;;;;5033236;28;20323;-71
2020/12/03 00:37:05;;;;;;;61.10;45.13;;;;;;;;;;5031948;28;20741;-71
2020/12/03 00:39:50;;;;;;;57.10;37.77;;;;;;;;;;5033017;28;20240;-71
2020/12/03 00:42:35;;;;;;;51.17;37.30;;;;;;;;;;5033239;28;20204;-71
2020/12/03 00:45:20;;;;;;;56.23;38.47;;;;;;;;;;5032499;28;20222;-71
2020/12/03 00:48:04;;;;;;;57.20;38.17;;;;;;;;;;5032514;28;20266;-71
2020/12/03 00:50:49;;;;;;;55.80;37.83;;;;;;;;;;5033001;28;20280;-71
2020/12/03 00:53:33;;;;;;;59.00;37.87;;;;;;;;;;5040908;28;20204;-72
2020/12/03 00:56:19;;;;;;;57.33;37.77;;;;;;;;;;5040784;28;20241;-71
2020/12/03 00:59:04;;;;;;;58.50;39.30;;;;;;;;;;5040882;28;20282;-71
2020/12/03 01:01:48;;;;;;;57.50;38.10;;;;;;;;;;5038515;28;20315;-72
2020/12/03 01:04:33;;;;;;;54.67;38.17;;;;;;;;;;5031864;28;20250;-73
2020/12/03 01:07:18;;;;;;;57.93;39.37;;;;;;;;;;5032099;28;20224;-71
2020/12/03 01:10:04;;;;;;;62.43;39.33;;;;;;;;;;5032225;28;20305;-71
2020/12/03 01:12:50;;;;;;;61.33;38.07;;;;;;;;;;5032723;28;20207;-71
2020/12/03 01:15:35;;;;;;;58.73;39.00;;;;;;;;;;5032594;28;20214;-73
2020/12/03 01:18:19;;;;;;;64.00;39.97;;;;;;;;;;5032335;28;20198;-73
2020/12/03 01:21:04;;;;;;;56.77;38.77;;;;;;;;;;5032354;28;20314;-71
2020/12/03 01:23:49;;;;;;;56.87;38.60;;;;;;;;;;5032122;28;20276;-71
2020/12/03 01:26:33;;;;;;;57.43;38.67;;;;;;;;;;5031831;28;20277;-71
2020/12/03 01:29:18;;;;;;;58.43;39.10;;;;;;;;;;5032124;28;20328;-71
2020/12/03 01:32:03;;;;;;;54.90;36.97;;;;;;;;;;5032439;28;20353;-70
2020/12/03 01:34:47;;;;;;;52.23;37.60;;;;;;;;;;5032013;28;20350;-71
2020/12/03 01:37:32;;;;;;;54.47;37.70;;;;;;;;;;5031527;28;20273;-71
2020/12/03 01:40:18;;;;;;;63.20;44.60;;;;;;;;;;5030537;28;20418;-71
2020/12/03 01:43:03;;;;;;;53.03;38.83;;;;;;;;;;5031946;28;20273;-71
2020/12/03 01:45:52;;;;;;;52.10;35.13;;;;;;;;;;5031397;28;20244;-71
2020/12/03 01:48:39;;;;;;;56.33;36.77;;;;;;;;;;5031688;28;20587;-71
2020/12/03 01:51:25;;;;;;;49.83;34.40;;;;;;;;;;5031923;28;20276;-71
2020/12/03 01:54:11;;;;;;;48.43;33.13;;;;;;;;;;5031574;28;20202;-71
2020/12/03 01:56:59;;;;;;;46.47;32.70;;;;;;;;;;5031207;28;20274;-71
2020/12/03 01:59:45;;;;;;;48.17;33.33;;;;;;;;;;5031549;28;20767;-71
2020/12/03 02:02:31;;;;;;;50.03;33.17;;;;;;;;;;5031361;28;20206;-73
2020/12/03 02:05:17;;;;;;;48.70;32.63;;;;;;;;;;5031331;28;20234;-73
2020/12/03 02:08:01;;;;;;;43.27;31.20;;;;;;;;;;5030557;28;20558;-70
2020/12/03 02:10:46;;;;;;;49.35;35.38;;;;;;;;;;5031134;28;20410;-73
2020/12/03 02:13:30;;;;;;;46.07;30.80;;;;;;;;;;5031739;28;20557;-71
2020/12/03 02:16:15;;;;;;;41.07;30.13;;;;;;;;;;5030262;28;20285;-72
2020/12/03 02:19:00;;;;;;;44.47;27.87;;;;;;;;;;5031436;28;20714;-73
2020/12/03 02:21:52;;;;;;;44.90;29.37;;;;;;;;;;5031387;28;20194;-72
2020/12/03 02:24:37;;;;;;;45.87;29.97;;;;;;;;;;5031015;28;20217;-73
2020/12/03 02:27:23;;;;;;;44.47;28.60;;;;;;;;;;5030804;28;20262;-72
2020/12/03 02:30:09;;;;;;;40.53;29.03;;;;;;;;;;5031255;28;20230;-72
2020/12/03 02:32:54;;;;;;;40.77;29.33;;;;;;;;;;5031269;28;20277;-72
2020/12/03 02:35:38;;;;;;;42.73;28.37;;;;;;;;;;5030681;28;20206;-72
2020/12/03 02:38:24;;;;;;;45.37;29.17;;;;;;;;;;5030989;28;20261;-73
2020/12/03 02:41:09;;;;;;;38.67;27.03;;;;;;;;;;5031031;28;20589;-72
2020/12/03 02:43:54;;;;;;;41.70;28.23;;;;;;;;;;5030822;28;20340;-72
2020/12/03 02:46:38;;;;;;;39.17;27.90;;;;;;;;;;5030324;28;20245;-72
2020/12/03 02:49:23;;;;;;;39.47;26.20;;;;;;;;;;5031073;28;20291;-73
2020/12/03 02:52:08;;;;;;;37.27;26.07;;;;;;;;;;5030723;28;20194;-72
2020/12/03 02:54:53;;;;;;;37.83;25.77;;;;;;;;;;5030982;28;20206;-73
2020/12/03 02:57:37;;;;;;;37.73;25.20;;;;;;;;;;5030456;28;20212;-73
2020/12/03 03:00:22;;;;;;;40.57;25.43;;;;;;;;;;5030852;28;20318;-72
2020/12/03 03:03:07;;;;;;;34.27;24.20;;;;;;;;;;5030944;28;20199;-73
2020/12/03 03:05:51;;;;;;;35.57;25.63;;;;;;;;;;5030477;28;20481;-73
2020/12/03 03:08:36;;;;;;;35.47;25.07;;;;;;;;;;5030511;28;20218;-72
2020/12/03 03:11:21;;;;;;;35.37;24.53;;;;;;;;;;5030990;28;20203;-72
2020/12/03 03:14:06;;;;;;;33.87;23.67;;;;;;;;;;5031122;28;20217;-72
2020/12/03 03:16:50;;;;;;;34.00;23.33;;;;;;;;;;5030357;28;20677;-73
2020/12/03 03:19:35;;;;;;;35.60;24.00;;;;;;;;;;5030013;28;20222;-73
2020/12/03 03:22:19;;;;;;;35.73;23.87;;;;;;;;;;5030419;28;20312;-72
2020/12/03 03:25:04;;;;;;;32.33;23.67;;;;;;;;;;5030891;28;20229;-73
2020/12/03 03:27:49;;;;;;;37.80;24.53;;;;;;;;;;5031529;28;20215;-72
2020/12/03 03:30:34;;;;;;;39.17;24.40;;;;;;;;;;5034330;28;20682;-71
2020/12/03 03:33:18;;;;;;;34.33;24.10;;;;;;;;;;5034429;28;20273;-72
2020/12/03 03:36:03;;;;;;;36.27;23.83;;;;;;;;;;5033724;28;20740;-72
2020/12/03 03:38:47;;;;;;;35.73;23.60;;;;;;;;;;5034136;28;20225;-70
2020/12/03 03:41:32;;;;;;;34.50;24.13;;;;;;;;;;5034176;28;20666;-72
2020/12/03 03:44:17;;;;;;;36.70;23.57;;;;;;;;;;5034093;28;20342;-72
2020/12/03 03:47:02;;;;;;;40.03;29.63;;;;;;;;;;5032302;28;20858;-73
2020/12/03 03:49:46;;;;;;;30.20;23.73;;;;;;;;;;5034070;28;20578;-72
2020/12/03 03:52:31;;;;;;;38.17;23.03;;;;;;;;;;5034084;28;20203;-72
2020/12/03 03:55:16;;;;;;;34.43;23.73;;;;;;;;;;5034018;28;20743;-73
2020/12/03 03:58:00;;;;;;;34.70;23.23;;;;;;;;;;5032335;28;20255;-72
2020/12/03 04:00:46;;;;;;;34.67;23.10;;;;;;;;;;5032880;28;20211;-73
2020/12/03 04:03:31;;;;;;;31.87;22.63;;;;;;;;;;5032822;28;20315;-71
2020/12/03 04:06:15;;;;;;;31.53;23.10;;;;;;;;;;5033040;28;20289;-72
2020/12/03 04:09:00;;;;;;;34.30;24.23;;;;;;;;;;5033763;28;20321;-72
2020/12/03 04:11:44;;;;;;;29.87;21.43;;;;;;;;;;5032733;28;20219;-72
2020/12/03 04:14:29;;;;;;;33.27;22.33;;;;;;;;;;5032038;28;20739;-70
2020/12/03 04:17:14;;;;;;;34.27;22.97;;;;;;;;;;5033111;28;20277;-72
2020/12/03 04:19:58;;;;;;;32.83;23.20;;;;;;;;;;5033460;28;20637;-72
2020/12/03 04:22:43;;;;;;;33.27;24.10;;;;;;;;;;5033537;28;20545;-72
2020/12/03 04:25:28;;;;;;;33.10;23.63;;;;;;;;;;5030563;28;20226;-70
2020/12/03 04:28:12;;;;;;;33.33;23.63;;;;;;;;;;5031491;28;20752;-73
2020/12/03 04:30:58;;;;;;;32.47;24.17;;;;;;;;;;5030335;28;20228;-72
2020/12/03 04:33:44;;;;;;;35.47;24.90;;;;;;;;;;5032052;28;20213;-72
2020/12/03 04:36:28;;;;;;;33.37;24.20;;;;;;;;;;5032356;28;20695;-72
2020/12/03 04:39:12;;;;;;;35.23;24.43;;;;;;;;;;5024938;28;20236;-72
2020/12/03 04:41:58;;;;;;;31.80;24.87;;;;;;;;;;5032651;28;20321;-72
2020/12/03 04:44:43;;;;;;;32.30;24.73;;;;;;;;;;5032764;28;20230;-71
2020/12/03 04:47:41;;;;;;;33.80;24.90;;;;;;;;;;5029968;28;20225;-71
2020/12/03 04:50:31;;;;;;;40.35;31.02;;;;;;;;;;5031768;28;20406;-72
2020/12/03 04:53:25;;;;;;;39.83;27.07;;;;;;;;;;5012955;28;20213;-72
2020/12/03 04:56:11;;;;;;;36.50;25.87;;;;;;;;;;5012545;28;20212;-72
2020/12/03 04:59:01;;;;;;;36.00;26.83;;;;;;;;;;5023715;28;20229;-71
2020/12/03 05:02:12;;;;;;;37.27;25.47;;;;;;;;;;5032816;28;20215;-71
2020/12/03 05:05:01;;;;;;;33.20;25.47;;;;;;;;;;4996013;28;20337;-72
2020/12/03 05:07:49;;;;;;;32.60;25.13;;;;;;;;;;5004625;22;20258;-75
2020/12/03 05:10:37;;;;;;;37.70;25.77;;;;;;;;;;4954263;29;20355;-75
2020/12/03 05:13:25;;;;;;;38.43;25.70;;;;;;;;;;4954327;29;20204;-77
2020/12/03 05:16:14;;;;;;;33.97;26.77;;;;;;;;;;4953473;29;20535;-75
2020/12/03 05:19:01;;;;;;;37.97;24.57;;;;;;;;;;4954201;28;20237;-77
2020/12/03 05:21:45;;;;;;;35.10;25.43;;;;;;;;;;4954254;29;20336;-75
2020/12/03 05:24:30;;;;;;;35.77;25.13;;;;;;;;;;4954064;29;20329;-76
2020/12/03 05:27:18;;;;;;;34.47;24.40;;;;;;;;;;4934654;29;20211;-76
2020/12/03 05:30:04;;;;;;;35.07;24.13;;;;;;;;;;4941176;29;20213;-76
2020/12/03 05:32:50;;;;;;;40.77;24.87;;;;;;;;;;4964119;28;20229;-76
2020/12/03 05:35:36;;;;;;;31.00;24.03;;;;;;;;;;4963197;28;20205;-77
2020/12/03 05:38:22;;;;;;;30.30;21.57;;;;;;;;;;4953875;28;20604;-75
2020/12/03 05:41:10;;;;;;;28.33;21.57;;;;;;;;;;4953864;29;20801;-75
2020/12/03 05:43:55;;;;;;;32.23;22.97;;;;;;;;;;4934729;29;20257;-76
2020/12/03 05:46:40;;;;;;;30.67;22.57;;;;;;;;;;4934246;29;20295;-75
2020/12/03 05:49:25;;;;;;;32.17;22.40;;;;;;;;;;4934583;29;20230;-76
2020/12/03 05:52:14;;;;;;;31.60;21.93;;;;;;;;;;4934496;29;20608;-76
2020/12/03 05:55:01;;;;;;;31.37;22.20;;;;;;;;;;4934798;29;20281;-77
2020/12/03 05:57:46;;;;;;;31.43;22.20;;;;;;;;;;4934218;29;21556;-75
2020/12/03 06:00:30;;;;;;;26.97;21.40;;;;;;;;;;4939229;28;20273;-76
2020/12/03 06:03:22;;;;;;;29.73;21.00;;;;;;;;;;4953660;29;20206;-76
2020/12/03 06:06:27;;;;;;;27.70;21.00;;;;;;;;;;4952581;29;20347;-76
2020/12/03 06:09:19;;;;;;;30.30;22.27;;;;;;;;;;4936392;29;20283;-77
2020/12/03 06:12:09;;;;;;;32.67;22.37;;;;;;;;;;4953364;29;20200;-75
2020/12/03 06:15:01;;;;;;;30.90;22.80;;;;;;;;;;4953412;29;20677;-76
2020/12/03 06:17:52;;;;;;;33.07;23.50;;;;;;;;;;4933426;29;20231;-76
2020/12/03 06:20:51;;;;;;;28.00;21.60;;;;;;;;;;4934102;29;20274;-76
2020/12/03 06:23:54;;;;;;;36.53;28.23;;;;;;;;;;4933427;29;20538;-76
2020/12/03 06:26:49;;;;;;;33.43;24.90;;;;;;;;;;4933660;29;20210;-75
2020/12/03 06:29:38;;;;;;;35.20;24.37;;;;;;;;;;4933819;29;20230;-75
2020/12/03 06:32:41;;;;;;;37.27;24.80;;;;;;;;;;4933999;29;20689;-75
2020/12/03 06:35:30;;;;;;;45.07;27.53;;;;;;;;;;4933761;29;20442;-76
2020/12/03 06:38:22;;;;;;;39.13;24.07;;;;;;;;;;4933538;29;20598;-76
2020/12/03 06:41:31;;;;;;;37.23;26.03;;;;;;;;;;4951771;28;20568;-76
2020/12/03 06:44:19;;;;;;;38.30;25.27;;;;;;;;;;4933779;29;20710;-76
2020/12/03 06:47:14;;;;;;;40.50;25.50;;;;;;;;;;4933161;29;20205;-77
2020/12/03 06:50:06;;;;;;;34.33;24.70;;;;;;;;;;4933891;29;20281;-76
2020/12/03 06:53:03;;;;;;;41.17;25.50;;;;;;;;;;4933805;29;20254;-76
2020/12/03 06:55:54;;;;;;;33.70;23.50;;;;;;;;;;4934074;29;20343;-76
2020/12/03 06:58:56;;;;;;;32.13;23.03;;;;;;;;;;4933737;29;20214;-77
2020/12/03 07:01:59;;;;;;;33.27;23.67;;;;;;;;;;4963163;28;20218;-76
2020/12/03 07:04:59;;;;;;;29.57;23.93;;;;;;;;;;4959477;28;20247;-76
2020/12/03 07:08:02;;;;;;;33.10;24.17;;;;;;;;;;4955952;28;20294;-77
2020/12/03 07:11:04;;;;;;;36.23;24.97;;;;;;;;;;4956592;29;20570;-76
2020/12/03 07:14:14;;;;;;;32.40;23.93;;;;;;;;;;4957457;28;20274;-74
2020/12/03 07:17:13;;;;;;;35.40;26.00;;;;;;;;;;4936812;29;20706;-75
2020/12/03 07:20:08;;;;;;;36.50;25.40;;;;;;;;;;4932426;29;20218;-74
2020/12/03 07:22:55;;;;;;;39.97;27.20;;;;;;;;;;4953458;28;20201;-75
2020/12/03 07:25:41;;;;;;;40.60;26.03;;;;;;;;;;4947096;29;20807;-74
2020/12/03 07:28:32;;;;;;;39.57;27.00;;;;;;;;;;4956160;28;20311;-75
2020/12/03 07:31:20;;;;;;;39.23;27.53;;;;;;;;;;4946080;29;20270;-73
2020/12/03 07:34:17;;;;;;;39.47;27.10;;;;;;;;;;4956200;29;20276;-74
2020/12/03 07:37:06;;;;;;;39.43;27.20;;;;;;;;;;4955721;29;20201;-75
2020/12/03 07:39:51;;;;;;;41.97;26.10;;;;;;;;;;4956122;29;20216;-74
2020/12/03 07:42:36;;;;;;;40.20;28.27;;;;;;;;;;4955948;29;20268;-75
2020/12/03 07:45:30;;;;;;;39.97;27.23;;;;;;;;;;4955766;29;20221;-75
2020/12/03 07:48:17;;;;;;;46.10;29.20;;;;;;;;;;4955858;28;20725;-75
2020/12/03 07:51:10;;;;;;;38.57;27.70;;;;;;;;;;4956123;29;20604;-75
2020/12/03 07:54:09;;;;;;;46.47;29.77;;;;;;;;;;4955957;29;20222;-75
2020/12/03 07:56:53;;;;;;;42.53;27.23;;;;;;;;;;4955354;29;20634;-74
2020/12/03 07:59:38;;;;;;;41.10;27.83;;;;;;;;;;4955684;29;20292;-75
2020/12/03 08:02:41;;;;;;;38.77;27.30;;;;;;;;;;4955442;29;20215;-75
2020/12/03 08:05:51;;;;;;;39.87;26.87;;;;;;;;;;4955425;29;20236;-75
2020/12/03 08:08:37;;;;;;;34.43;25.27;;;;;;;;;;4955348;28;20627;-74
2020/12/03 08:11:38;;;;;;;37.83;25.50;;;;;;;;;;4955532;29;20204;-75
2020/12/03 08:14:35;;;;;;;35.83;25.30;;;;;;;;;;4953895;28;20660;-75
2020/12/03 08:17:38;;;;;;;30.87;22.60;;;;;;;;;;4957353;28;20211;-75
2020/12/03 08:20:24;;;;;;;34.93;23.43;;;;;;;;;;4948891;29;20260;-75
2020/12/03 08:23:11;;;;;;;36.90;23.17;;;;;;;;;;4958335;28;20719;-75
2020/12/03 08:25:55;;;;;;;33.70;23.33;;;;;;;;;;4954743;29;20340;-75
2020/12/03 08:28:40;;;;;;;33.50;23.17;;;;;;;;;;4955195;28;20251;-75
2020/12/03 08:31:24;;;;;;;34.50;23.80;;;;;;;;;;4953151;28;20216;-72
2020/12/03 08:34:10;;;;;;;40.20;30.23;;;;;;;;;;4953859;29;20436;-77
2020/12/03 08:36:55;;;;;;;36.63;24.63;;;;;;;;;;4954440;29;20221;-81
2020/12/03 08:39:42;;;;;;;35.80;23.17;;;;;;;;;;4955089;29;20249;-78
2020/12/03 08:42:26;;;;;;;31.93;22.97;;;;;;;;;;4955093;29;20244;-79
2020/12/03 08:45:11;;;;;;;33.97;23.60;;;;;;;;;;4963966;28;20229;-78
2020/12/03 08:47:55;;;;;;;31.97;23.30;;;;;;;;;;4944048;28;20225;-76
2020/12/03 08:50:40;;;;;;;38.30;22.90;;;;;;;;;;4964930;28;20295;-77
2020/12/03 08:53:27;;;;;;;35.80;21.40;;;;;;;;;;4958118;28;20216;-78
2020/12/03 08:56:21;;;;;;;33.23;20.70;;;;;;;;;;4935104;29;20217;-77
2020/12/03 08:59:07;;;;;;;32.13;20.97;;;;;;;;;;4951243;28;20233;-81
2020/12/03 09:02:00;;;;;;;31.43;19.93;;;;;;;;;;4954237;29;20315;-72
2020/12/03 09:04:45;;;;;;;28.03;19.87;;;;;;;;;;4956664;28;20349;-73
2020/12/03 09:07:32;;;;;;;33.60;21.03;;;;;;;;;;4953505;28;20329;-71
2020/12/03 09:10:18;;;;;;;27.93;18.97;;;;;;;;;;4954412;28;20206;-78
2020/12/03 09:13:03;;;;;;;29.27;19.73;;;;;;;;;;4953274;29;20209;-75
2020/12/03 09:15:48;;;;;;;27.43;18.40;;;;;;;;;;4955699;28;20213;-74
2020/12/03 09:18:41;;;;;;;26.10;18.50;;;;;;;;;;4939361;28;20248;-77
2020/12/03 09:21:26;;;;;;;23.17;17.27;;;;;;;;;;4950237;29;20210;-75
2020/12/03 09:24:12;;;;;;;28.50;19.33;;;;;;;;;;4958338;28;20213;-78
2020/12/03 09:27:01;;;;;;;25.90;17.93;;;;;;;;;;4949397;28;20259;-76
2020/12/03 09:29:50;;;;;;;28.47;19.20;;;;;;;;;;4954277;28;20215;-79
2020/12/03 09:32:38;;;;;;;23.53;17.77;;;;;;;;;;4958047;28;20221;-77
2020/12/03 09:35:24;;;;;;;29.15;24.45;;;;;;;;;;4952858;28;20486;-77
2020/12/03 09:38:09;;;;;;;28.97;20.10;;;;;;;;;;4957842;28;20222;-77
2020/12/03 09:40:54;;;;;;;31.27;21.30;;;;;;;;;;4953345;28;20792;-76
2020/12/03 09:43:45;;;;;;;32.87;21.53;;;;;;;;;;4956346;28;20570;-75
2020/12/03 09:46:30;;;;;;;31.50;21.00;;;;;;;;;;4955637;28;20276;-78
2020/12/03 09:49:16;;;;;;;28.57;20.47;;;;;;;;;;4952384;28;20316;-79
2020/12/03 09:52:01;;;;;;;37.13;22.43;;;;;;;;;;4952228;29;20209;-75
2020/12/03 09:54:46;;;;;;;32.13;22.47;;;;;;;;;;4953770;29;20222;-75
2020/12/03 09:57:31;;;;;;;34.33;22.53;;;;;;;;;;4954547;28;20242;-77
2020/12/03 10:00:17;;;;;;;30.57;21.43;;;;;;;;;;4944531;29;20563;-78
2020/12/03 10:03:16;;;;;;;28.30;21.60;;;;;;;;;;4953382;29;20717;-80
2020/12/03 10:06:03;;;;;;;32.23;22.80;;;;;;;;;;4939940;29;20652;-76
2020/12/03 10:09:05;;;;;;;36.83;23.33;;;;;;;;;;4953212;28;20221;-76
2020/12/03 10:12:05;;;;;;;33.30;23.10;;;;;;;;;;4953258;29;20207;-74
2020/12/03 10:15:13;;;;;;;33.03;22.87;;;;;;;;;;4953412;29;20265;-76
2020/12/03 10:18:05;;;;;;;30.80;21.87;;;;;;;;;;4952418;28;20248;-78
2020/12/03 10:20:50;;;;;;;33.10;21.80;;;;;;;;;;4953358;29;20207;-79
2020/12/03 10:23:39;;;;;;;31.67;22.93;;;;;;;;;;4958527;28;20222;-78
2020/12/03 10:26:35;;;;;;;34.63;22.83;;;;;;;;;;4933423;29;20273;-78
2020/12/03 10:29:24;;;;;;;35.93;23.37;;;;;;;;;;4941493;28;20218;-76
2020/12/03 10:32:10;;;;;;;36.43;23.33;;;;;;;;;;4952516;29;20323;-77
2020/12/03 10:34:55;;;;;;;32.73;22.83;;;;;;;;;;4955580;28;20200;-79
2020/12/03 10:37:46;;;;;;;30.37;21.57;;;;;;;;;;4949789;28;20229;-74
2020/12/03 10:40:31;;;;;;;33.73;23.50;;;;;;;;;;4951752;28;20210;-77
2020/12/03 10:43:23;;;;;;;33.93;23.60;;;;;;;;;;4955807;28;20578;-76
2020/12/03 10:46:12;;;;;;;31.37;24.13;;;;;;;;;;4947769;28;20252;-76
2020/12/03 10:48:59;;;;;;;30.97;23.60;;;;;;;;;;4952834;28;20234;-77
2020/12/03 10:51:44;;;;;;;34.07;23.07;;;;;;;;;;4952885;29;20287;-72
2020/12/03 10:54:31;;;;;;;29.17;22.20;;;;;;;;;;4955301;28;20214;-73
2020/12/03 10:57:17;;;;;;;32.37;23.30;;;;;;;;;;4952380;28;20221;-73
2020/12/03 11:00:02;;;;;;;32.00;22.77;;;;;;;;;;4952333;29;20200;-73
2020/12/03 11:02:47;;;;;;;32.70;23.43;;;;;;;;;;4952782;29;20210;-74
2020/12/03 11:05:32;;;;;;;32.60;22.60;;;;;;;;;;4952599;29;20245;-75
2020/12/03 11:08:17;;;;;;;31.97;23.30;;;;;;;;;;4951230;28;20820;-72
2020/12/03 11:11:02;;;;;;;30.70;23.52;;;;;;;;;;4952594;29;20417;-74
2020/12/03 11:13:47;;;;;;;29.87;23.23;;;;;;;;;;4952437;28;20207;-72
2020/12/03 11:16:32;;;;;;;30.40;22.40;;;;;;;;;;4954362;28;20273;-71
2020/12/03 11:19:18;;;;;;;28.43;21.37;;;;;;;;;;4952621;29;20202;-72
2020/12/03 11:22:07;;;;;;;30.40;22.03;;;;;;;;;;4952622;29;20811;-72
2020/12/03 11:24:59;;;;;;;28.70;21.70;;;;;;;;;;4949441;28;20212;-73
2020/12/03 11:27:43;;;;;;;25.57;21.07;;;;;;;;;;4943910;28;20226;-76
2020/12/03 11:30:29;;;;;;;29.30;22.57;;;;;;;;;;4952426;29;20691;-71
2020/12/03 11:33:23;;;;;;;26.57;21.13;;;;;;;;;;4954796;28;20413;-76
2020/12/03 11:36:12;;;;;;;25.77;19.70;;;;;;;;;;4950366;29;20302;-71
2020/12/03 11:38:57;;;;;;;28.83;21.27;;;;;;;;;;4951927;28;20710;-73
2020/12/03 11:41:53;;;;;;;24.97;19.13;;;;;;;;;;4952586;29;20688;-72
2020/12/03 11:50:36;;;;;;;23.97;19.67;;;;;;;;;;4938561;29;20218;-71
2020/12/03 11:53:21;;;;;;;26.27;19.00;;;;;;;;;;4958505;28;20210;-73
2020/12/03 11:56:17;;;;;;;25.53;19.27;;;;;;;;;;4955239;29;20207;-73
2020/12/03 11:59:11;;;;;;;21.30;19.00;;;;;;;;;;4958031;28;20206;-72
2020/12/03 12:01:56;;;;;;;23.03;19.30;;;;;;;;;;4955542;29;20704;-73
2020/12/03 12:04:49;;;;;;;19.47;17.40;;;;;;;;;;4955629;29;20216;-72
2020/12/03 12:07:39;;;;;;;22.47;18.97;;;;;;;;;;4956779;28;20253;-73
2020/12/03 12:10:27;;;;;;;21.73;18.20;;;;;;;;;;4936671;28;20289;-72
2020/12/03 12:13:14;;;;;;;19.83;17.67;;;;;;;;;;4954969;29;20217;-72
2020/12/03 12:15:59;;;;;;;22.53;18.53;;;;;;;;;;4954864;29;20583;-73
2020/12/03 12:18:43;;;;;;;20.63;17.17;;;;;;;;;;4954916;28;20225;-71
2020/12/03 12:21:29;;;;;;;19.73;17.53;;;;;;;;;;4958019;28;20210;-72
2020/12/03 12:24:13;;;;;;;19.50;16.73;;;;;;;;;;4955293;29;20213;-71
2020/12/03 12:26:58;;;;;;;21.20;17.40;;;;;;;;;;4954548;28;20241;-72
2020/12/03 12:29:43;;;;;;;24.30;20.40;;;;;;;;;;4936336;29;20330;-71
2020/12/03 12:32:28;;;;;;;20.37;16.50;;;;;;;;;;4936042;29;20203;-72
2020/12/03 12:35:12;;;;;;;19.13;16.40;;;;;;;;;;4949171;28;20688;-73
2020/12/03 12:37:57;;;;;;;18.13;15.53;;;;;;;;;;4954334;28;20226;-72
2020/12/03 12:40:42;;;;;;;19.07;14.90;;;;;;;;;;4936064;29;20621;-72
2020/12/03 12:43:26;;;;;;;19.73;14.80;;;;;;;;;;4935751;29;20199;-72
2020/12/03 12:46:11;;;;;;;17.35;15.50;;;;;;;;;;4934707;29;20611;-72
2020/12/03 12:48:56;;;;;;;15.53;13.30;;;;;;;;;;4935650;29;20206;-72
2020/12/03 12:51:41;;;;;;;16.33;13.87;;;;;;;;;;4955010;28;20218;-72
2020/12/03 12:54:26;;;;;;;14.90;12.77;;;;;;;;;;4957170;28;20236;-73
2020/12/03 12:57:11;;;;;;;14.40;12.27;;;;;;;;;;4956686;28;20240;-73
2020/12/03 12:59:55;;;;;;;14.40;12.57;;;;;;;;;;4953763;28;20210;-74
2020/12/03 13:02:40;;;;;;;13.93;12.20;;;;;;;;;;4954637;29;20207;-71
2020/12/03 13:05:25;;;;;;;14.00;12.03;;;;;;;;;;4954307;28;20595;-73
2020/12/03 13:08:09;;;;;;;13.27;11.40;;;;;;;;;;4934611;29;20785;-76
2020/12/03 13:10:54;;;;;;;14.47;11.63;;;;;;;;;;4935157;29;20210;-72
2020/12/03 13:13:38;;;;;;;11.90;10.67;;;;;;;;;;4935243;29;20290;-73
2020/12/03 13:16:23;;;;;;;12.17;10.87;;;;;;;;;;4957177;28;20218;-74
2020/12/03 13:19:08;;;;;;;12.95;11.65;;;;;;;;;;4953100;29;20469;-73
2020/12/03 13:21:53;;;;;;;11.33;10.10;;;;;;;;;;4954259;29;20206;-74
2020/12/03 13:24:38;;;;;;;10.47;9.47;;;;;;;;;;4956914;28;20569;-74
2020/12/03 13:27:22;;;;;;;10.40;9.17;;;;;;;;;;4953449;28;20299;-73
2020/12/03 13:30:08;;;;;;;10.37;9.37;;;;;;;;;;4952861;28;20567;-73
2020/12/03 13:32:52;;;;;;;9.20;8.07;;;;;;;;;;4961472;28;20346;-75
2020/12/03 13:35:38;;;;;;;9.83;8.93;;;;;;;;;;4955786;28;20223;-74
2020/12/03 13:38:22;;;;;;;10.00;9.10;;;;;;;;;;4942221;29;20716;-75
2020/12/03 13:41:07;;;;;;;11.23;8.83;;;;;;;;;;4953722;29;20569;-75
2020/12/03 13:43:51;;;;;;;8.83;7.93;;;;;;;;;;4953778;29;20784;-75
2020/12/03 13:46:38;;;;;;;9.00;7.93;;;;;;;;;;4952447;28;20245;-74
2020/12/03 13:49:23;;;;;;;10.10;9.10;;;;;;;;;;4953731;29;20215;-74
2020/12/03 13:52:08;;;;;;;9.13;8.33;;;;;;;;;;4953293;29;20208;-74
2020/12/03 13:54:53;;;;;;;9.33;8.53;;;;;;;;;;4955735;28;20260;-73
2020/12/03 13:57:39;;;;;;;8.73;7.90;;;;;;;;;;4955617;28;20752;-74
2020/12/03 14:00:24;;;;;;;9.27;8.40;;;;;;;;;;4953552;29;20260;-74
2020/12/03 14:03:08;;;;;;;9.47;8.60;;;;;;;;;;4953393;29;20210;-74
2020/12/03 14:05:53;;;;;;;9.40;8.43;;;;;;;;;;4953016;29;20731;-74
2020/12/03 14:08:38;;;;;;;9.43;8.50;;;;;;;;;;4953387;28;20335;-74
2020/12/03 14:11:22;;;;;;;9.43;8.53;;;;;;;;;;4956254;28;20297;-74
2020/12/03 14:14:07;;;;;;;9.63;8.83;;;;;;;;;;4934198;29;20575;-74
2020/12/03 14:16:51;;;;;;;8.87;8.10;;;;;;;;;;4952795;28;20248;-74
2020/12/03 14:19:36;;;;;;;9.97;9.07;;;;;;;;;;4953404;28;20279;-74
2020/12/03 14:22:23;;;;;;;10.00;9.00;;;;;;;;;;4952130;28;20214;-73
2020/12/03 14:25:09;;;;;;;11.03;10.00;;;;;;;;;;4953366;29;20325;-73
2020/12/03 14:27:53;;;;;;;11.90;10.90;;;;;;;;;;4950687;28;20232;-73
2020/12/03 14:30:38;;;;;;;11.67;10.67;;;;;;;;;;4934032;29;20214;-76
2020/12/03 14:33:23;;;;;;;12.60;11.40;;;;;;;;;;4945117;28;20209;-74
2020/12/03 14:36:07;;;;;;;12.40;11.37;;;;;;;;;;4952592;29;20209;-73
2020/12/03 14:38:51;;;;;;;10.73;9.83;;;;;;;;;;4944751;28;20269;-73
2020/12/03 14:41:37;;;;;;;9.47;8.77;;;;;;;;;;4952842;29;20215;-74
2020/12/03 14:44:21;;;;;;;9.40;8.70;;;;;;;;;;4952856;29;20205;-74
2020/12/03 14:47:06;;;;;;;9.27;8.53;;;;;;;;;;4952067;28;20241;-74
2020/12/03 14:49:51;;;;;;;8.63;7.93;;;;;;;;;;4952621;29;20200;-73
2020/12/03 14:52:36;;;;;;;8.50;7.80;;;;;;;;;;4952833;29;20417;-73
2020/12/03 14:55:21;;;;;;;7.87;7.20;;;;;;;;;;4952442;29;20343;-71
2020/12/03 14:58:06;;;;;;;7.50;6.90;;;;;;;;;;4952145;28;20248;-74
2020/12/03 15:00:51;;;;;;;8.20;7.40;;;;;;;;;;4951048;28;20692;-72
2020/12/03 15:03:35;;;;;;;6.90;6.30;;;;;;;;;;4951557;29;20253;-72
2020/12/03 15:06:20;;;;;;;7.73;6.20;;;;;;;;;;4951898;28;20720;-73
2020/12/03 15:09:05;;;;;;;6.60;6.00;;;;;;;;;;4952728;29;20209;-72
2020/12/03 15:11:53;;;;;;;6.00;5.50;;;;;;;;;;4952415;29;20211;-71
2020/12/03 15:14:38;;;;;;;6.57;6.00;;;;;;;;;;4952849;29;20570;-73
2020/12/03 15:17:23;;;;;;;6.43;5.77;;;;;;;;;;4945371;28;20885;-72
2020/12/03 15:20:08;;;;;;;6.57;5.73;;;;;;;;;;4952618;29;20205;-74
2020/12/03 15:22:53;;;;;;;7.50;6.50;;;;;;;;;;4952754;28;20202;-73
2020/12/03 15:25:37;;;;;;;6.10;5.50;;;;;;;;;;4956189;29;20204;-71
2020/12/03 15:28:22;;;;;;;6.30;5.73;;;;;;;;;;4956277;28;20315;-71
2020/12/03 15:31:08;;;;;;;6.33;5.73;;;;;;;;;;4956239;29;20655;-73
2020/12/03 15:33:52;;;;;;;6.07;5.57;;;;;;;;;;4955133;28;20217;-72
2020/12/03 15:36:50;;;;;;;5.80;5.30;;;;;;;;;;4956517;28;20364;-73
2020/12/03 15:39:36;;;;;;;5.40;4.90;;;;;;;;;;4949752;29;20205;-73
2020/12/03 15:42:20;;;;;;;4.90;4.40;;;;;;;;;;4955996;29;20200;-72
2020/12/03 15:45:06;;;;;;;5.20;4.80;;;;;;;;;;4956002;29;20212;-74
2020/12/03 15:48:06;;;;;;;5.00;4.57;;;;;;;;;;4955349;28;20241;-72
2020/12/03 15:50:52;;;;;;;5.13;4.63;;;;;;;;;;4954698;28;20690;-73
2020/12/03 15:53:37;;;;;;;4.77;4.37;;;;;;;;;;4955624;29;20234;-73
2020/12/03 15:56:22;;;;;;;4.60;4.20;;;;;;;;;;4955048;28;20157;-73
2020/12/03 15:59:06;;;;;;;4.07;3.77;;;;;;;;;;4955857;29;20214;-72
2020/12/03 16:01:52;;;;;;;3.97;3.67;;;;;;;;;;4955338;29;20201;-71
2020/12/03 16:04:38;;;;;;;3.93;3.63;;;;;;;;;;4955781;29;20248;-72
2020/12/03 16:07:23;;;;;;;3.60;3.40;;;;;;;;;;4954745;28;20341;-72
2020/12/03 16:10:07;;;;;;;3.70;3.40;;;;;;;;;;4954703;28;20215;-72
2020/12/03 16:12:52;;;;;;;3.77;3.50;;;;;;;;;;4955709;29;20207;-73
2020/12/03 16:15:37;;;;;;;3.90;3.60;;;;;;;;;;4955704;29;20204;-73
2020/12/03 16:18:21;;;;;;;3.73;3.50;;;;;;;;;;4935942;29;20213;-71
2020/12/03 16:21:06;;;;;;;4.17;3.87;;;;;;;;;;4936595;29;20209;-72
2020/12/03 16:23:52;;;;;;;4.40;4.10;;;;;;;;;;4936007;29;20205;-72